createdAt,value
2023-08-18T00:00:33.054Z,8.40
2023-08-18T00:03:06.064Z,8.60
2023-08-18T00:05:38.856Z,8.00
2023-08-18T00:08:11.359Z,11.00
2023-08-18T00:10:44.028Z,7.90
2023-08-18T00:13:16.465Z,7.60
2023-08-18T00:15:48.914Z,8.50
2023-08-18T00:18:21.450Z,9.40
2023-08-18T00:20:54.433Z,11.80
2023-08-18T00:23:27.173Z,8.90
2023-08-18T00:25:59.509Z,8.60
2023-08-18T00:28:31.983Z,9.10
2023-08-18T00:31:04.633Z,8.60
2023-08-18T00:33:37.340Z,8.80
2023-08-18T00:36:13.114Z,8.10
2023-08-18T00:38:47.038Z,7.90
2023-08-18T00:41:40.157Z,7.90
2023-08-18T00:44:12.717Z,8.70
2023-08-18T00:46:46.132Z,8.60
2023-08-18T00:49:20.306Z,10.20
2023-08-18T00:51:53.772Z,8.20
2023-08-18T00:54:26.446Z,9.50
2023-08-18T00:57:00.010Z,10.40
2023-08-18T00:59:32.774Z,8.40
2023-08-18T01:02:07.179Z,8.10
2023-08-18T01:04:41.427Z,9.20
2023-08-18T01:07:15.646Z,9.60
2023-08-18T01:09:49.035Z,9.50
2023-08-18T01:12:29.567Z,8.50
2023-08-18T01:15:10.846Z,9.10
2023-08-18T01:17:50.768Z,8.30
2023-08-18T01:20:24.881Z,8.50
2023-08-18T01:23:00.345Z,9.70
2023-08-18T01:25:33.846Z,8.30
2023-08-18T01:28:07.796Z,8.90
2023-08-18T01:30:48.646Z,12.70
2023-08-18T01:33:28.489Z,8.80
2023-08-18T01:36:06.316Z,8.50
2023-08-18T01:38:39.787Z,9.50
2023-08-18T01:41:13.994Z,8.60
2023-08-18T01:43:46.499Z,9.80
2023-08-18T01:46:19.414Z,9.30
2023-08-18T01:48:51.891Z,8.40
2023-08-18T01:51:24.335Z,7.90
2023-08-18T01:53:56.865Z,16.40
2023-08-18T01:56:29.358Z,8.00
2023-08-18T01:59:01.949Z,8.00
2023-08-18T02:01:34.517Z,7.90
2023-08-18T02:04:08.277Z,8.80
2023-08-18T02:06:40.888Z,7.60
2023-08-18T02:09:14.033Z,7.30
2023-08-18T02:11:46.685Z,7.80
2023-08-18T02:14:19.547Z,7.00
2023-08-18T02:16:52.799Z,6.70
2023-08-18T02:21:57.309Z,5.90
2023-08-18T02:24:30.996Z,7.90
2023-08-18T02:27:03.527Z,6.70
2023-08-18T02:29:36.347Z,6.10
2023-08-18T02:32:09.189Z,7.10
2023-08-18T02:34:41.455Z,7.20
2023-08-18T02:37:13.947Z,6.60
2023-08-18T02:39:46.687Z,7.20
2023-08-18T02:42:19.949Z,7.00
2023-08-18T02:47:23.006Z,7.80
2023-08-18T02:49:55.889Z,6.80
2023-08-18T02:52:28.823Z,8.10
2023-08-18T02:55:01.685Z,7.60
2023-08-18T02:57:33.887Z,7.40
2023-08-18T03:00:06.922Z,7.60
2023-08-18T03:02:39.403Z,7.70
2023-08-18T03:05:12.812Z,10.10
2023-08-18T03:07:45.231Z,8.30
2023-08-18T03:10:19.497Z,9.60
2023-08-18T03:12:51.849Z,10.40
2023-08-18T03:15:24.777Z,12.60
2023-08-18T03:17:57.232Z,7.70
2023-08-18T03:20:30.190Z,7.90
2023-08-18T03:23:02.446Z,10.10
2023-08-18T03:25:34.597Z,8.40
2023-08-18T03:28:11.404Z,9.70
2023-08-18T03:30:45.727Z,11.40
2023-08-18T03:33:19.059Z,10.60
2023-08-18T03:35:54.474Z,12.00
2023-08-18T03:38:27.502Z,11.30
2023-08-18T03:43:35.154Z,10.80
2023-08-18T03:46:22.487Z,9.30
2023-08-18T03:48:57.051Z,10.90
2023-08-18T03:51:30.708Z,11.10
2023-08-18T03:54:04.675Z,10.20
2023-08-18T03:56:37.517Z,11.50
2023-08-18T03:59:10.184Z,11.40
2023-08-18T04:01:42.741Z,11.20
2023-08-18T04:04:15.094Z,13.80
2023-08-18T04:06:47.919Z,12.30
2023-08-18T04:09:20.746Z,12.80
2023-08-18T04:11:54.834Z,13.30
2023-08-18T04:14:28.467Z,11.80
2023-08-18T04:17:02.425Z,13.80
2023-08-18T04:22:06.428Z,14.80
2023-08-18T04:24:38.929Z,12.40
2023-08-18T04:27:13.150Z,11.00
2023-08-18T04:29:45.805Z,11.50
2023-08-18T04:32:18.547Z,12.20
2023-08-18T04:34:52.359Z,13.00
2023-08-18T04:37:25.196Z,11.20
2023-08-18T04:39:59.269Z,11.60
2023-08-18T04:42:32.044Z,11.40
2023-08-18T04:45:05.709Z,10.90
2023-08-18T04:47:38.576Z,10.30
2023-08-18T04:50:12.945Z,13.00
2023-08-18T04:52:45.557Z,13.20
2023-08-18T04:55:18.170Z,11.90
2023-08-18T04:57:50.558Z,11.90
2023-08-18T05:00:23.638Z,11.20
2023-08-18T05:02:56.345Z,10.90
2023-08-18T05:05:28.906Z,10.60
2023-08-18T05:08:01.461Z,12.40
2023-08-18T05:10:34.006Z,13.20
2023-08-18T05:13:06.720Z,10.70
2023-08-18T05:15:40.679Z,10.50
2023-08-18T05:18:13.146Z,10.90
2023-08-18T05:20:45.649Z,12.90
2023-08-18T05:23:19.681Z,13.20
2023-08-18T05:25:55.757Z,10.30
2023-08-18T05:28:30.398Z,11.40
2023-08-18T05:31:03.150Z,11.40
2023-08-18T05:33:35.726Z,12.50
2023-08-18T05:36:09.689Z,12.00
2023-08-18T05:38:42.154Z,13.60
2023-08-18T05:41:17.069Z,12.80
2023-08-18T05:43:51.596Z,13.90
2023-08-18T05:46:24.112Z,13.50
2023-08-18T05:48:56.466Z,13.90
2023-08-18T05:51:28.988Z,13.50
2023-08-18T05:54:01.375Z,12.90
2023-08-18T05:56:33.717Z,13.00
2023-08-18T05:59:07.739Z,14.30
2023-08-18T06:01:40.305Z,12.80
2023-08-18T06:04:12.841Z,11.40
2023-08-18T06:06:45.336Z,11.70
2023-08-18T06:09:17.921Z,14.30
2023-08-18T06:11:51.705Z,15.20
2023-08-18T06:14:24.225Z,12.00
2023-08-18T06:16:56.565Z,11.50
2023-08-18T06:19:28.927Z,12.60
2023-08-18T06:22:01.659Z,12.90
2023-08-18T06:24:42.056Z,12.40
2023-08-18T06:27:17.746Z,11.10
2023-08-18T06:29:50.312Z,11.10
2023-08-18T06:32:22.639Z,10.40
2023-08-18T06:34:56.433Z,10.50
2023-08-18T06:37:30.115Z,13.80
2023-08-18T06:40:02.624Z,11.20
2023-08-18T06:42:34.930Z,9.70
2023-08-18T06:45:08.304Z,10.50
2023-08-18T06:47:40.750Z,11.50
2023-08-18T06:50:14.145Z,11.30
2023-08-18T06:52:46.766Z,10.40
2023-08-18T06:55:20.454Z,10.50
2023-08-18T06:57:57.577Z,10.30
2023-08-18T07:00:29.974Z,10.30
2023-08-18T07:03:02.337Z,13.90
2023-08-18T07:05:35.012Z,10.40
2023-08-18T07:08:08.825Z,10.10
2023-08-18T07:10:41.845Z,11.20
2023-08-18T07:13:14.195Z,10.30
2023-08-18T07:15:46.956Z,10.20
2023-08-18T07:18:21.389Z,10.80
2023-08-18T07:20:54.466Z,11.90
2023-08-18T07:23:27.561Z,12.40
2023-08-18T07:26:00.136Z,10.40
2023-08-18T07:28:33.068Z,10.50
2023-08-18T07:31:09.286Z,12.40
2023-08-18T07:33:42.216Z,10.50
2023-08-18T07:36:14.957Z,10.50
2023-08-18T07:38:48.509Z,11.00
2023-08-18T07:41:21.147Z,11.00
2023-08-18T07:43:55.267Z,10.90
2023-08-18T07:46:28.103Z,10.70
2023-08-18T07:49:01.624Z,10.70
2023-08-18T07:51:34.487Z,11.30
2023-08-18T07:56:37.683Z,10.10
2023-08-18T07:59:11.043Z,14.50
2023-08-18T08:01:43.608Z,10.00
2023-08-18T08:04:16.908Z,10.20
2023-08-18T08:06:51.399Z,9.80
2023-08-18T08:09:23.987Z,10.50
2023-08-18T08:17:01.418Z,11.00
2023-08-18T08:19:33.630Z,10.40
2023-08-18T08:22:11.478Z,11.70
2023-08-18T08:24:43.966Z,10.40
2023-08-18T08:27:17.375Z,13.40
2023-08-18T08:29:51.890Z,10.40
2023-08-18T08:32:24.468Z,10.40
2023-08-18T08:34:56.919Z,10.80
2023-08-18T08:37:29.403Z,11.40
2023-08-18T08:40:02.602Z,10.90
2023-08-18T08:42:35.717Z,11.10
2023-08-18T08:45:12.893Z,10.30
2023-08-18T08:47:45.812Z,11.80
2023-08-18T08:52:55.015Z,11.60
2023-08-18T08:55:35.170Z,11.30
2023-08-18T08:58:13.972Z,11.00
2023-08-18T09:00:48.201Z,10.60
2023-08-18T09:03:22.476Z,11.50
2023-08-18T09:05:56.663Z,12.00
2023-08-18T09:08:29.330Z,12.60
2023-08-18T09:13:35.733Z,11.10
2023-08-18T09:16:09.255Z,11.20
2023-08-18T09:18:44.435Z,11.50
2023-08-18T09:21:17.957Z,11.80
2023-08-18T09:23:56.755Z,11.80
2023-08-18T09:26:30.933Z,13.20
2023-08-18T09:29:04.157Z,10.60
2023-08-18T09:31:36.630Z,12.00
2023-08-18T09:36:40.507Z,11.30
2023-08-18T09:41:44.529Z,11.20
2023-08-18T09:44:17.140Z,12.10
2023-08-18T09:49:27.758Z,11.80
2023-08-18T09:52:07.532Z,10.80
2023-08-18T09:54:52.688Z,12.10
2023-08-18T09:57:33.021Z,11.30
2023-08-18T10:00:07.572Z,11.10
2023-08-18T10:02:46.061Z,12.10
2023-08-18T10:05:19.998Z,11.90
2023-08-18T10:07:54.087Z,11.50
2023-08-18T10:10:27.772Z,10.70
2023-08-18T10:13:00.932Z,14.00
2023-08-18T10:15:34.290Z,10.40
2023-08-18T10:18:10.837Z,11.20
2023-08-18T10:20:52.179Z,11.60
2023-08-18T10:23:28.473Z,11.80
2023-08-18T10:26:01.717Z,12.40
2023-08-18T10:28:35.635Z,11.60
2023-08-18T10:31:12.850Z,12.80
2023-08-18T10:33:47.080Z,11.00
2023-08-18T10:36:28.489Z,11.30
2023-08-18T10:42:08.984Z,11.40
2023-08-18T10:44:41.640Z,12.40
2023-08-18T10:49:57.744Z,11.70
2023-08-18T10:52:32.385Z,11.70
2023-08-18T10:55:05.236Z,10.30
2023-08-18T10:57:38.955Z,11.50
2023-08-18T11:00:13.982Z,11.90
2023-08-18T11:02:47.116Z,11.60
2023-08-18T11:05:21.610Z,12.50
2023-08-18T11:07:54.449Z,13.30
2023-08-18T11:10:28.289Z,13.30
2023-08-18T11:13:01.399Z,11.40
2023-08-18T11:15:34.253Z,11.90
2023-08-18T11:18:08.136Z,10.80
2023-08-18T11:20:42.258Z,12.30
2023-08-18T11:23:14.650Z,10.00
2023-08-18T11:28:18.929Z,11.10
2023-08-18T11:30:51.278Z,11.90
2023-08-18T11:33:27.184Z,10.40
2023-08-18T11:36:00.305Z,10.30
2023-08-18T11:38:34.703Z,11.80
2023-08-18T11:41:07.474Z,11.60
2023-08-18T11:43:40.772Z,10.80
2023-08-18T11:46:14.285Z,10.10
2023-08-18T11:48:47.702Z,11.40
2023-08-18T11:51:20.578Z,9.30
2023-08-18T11:53:54.508Z,9.50
2023-08-18T11:56:27.802Z,9.30
2023-08-18T11:59:00.457Z,11.30
2023-08-18T12:01:38.437Z,11.00
2023-08-18T12:04:14.849Z,10.90
2023-08-18T12:06:47.247Z,8.50
2023-08-18T12:09:20.316Z,10.10
2023-08-18T12:11:53.305Z,7.60
2023-08-18T12:14:28.559Z,8.90
2023-08-18T12:17:01.120Z,8.40
2023-08-18T12:19:36.508Z,7.70
2023-08-18T12:22:09.416Z,9.40
2023-08-18T12:24:42.185Z,9.00
2023-08-18T12:27:14.608Z,7.30
2023-08-18T12:29:47.266Z,9.00
2023-08-18T12:32:19.753Z,7.00
2023-08-18T12:37:24.577Z,7.20
2023-08-18T12:39:57.524Z,9.00
2023-08-18T12:42:31.818Z,6.90
2023-08-18T12:45:04.478Z,7.70
2023-08-18T12:47:36.882Z,6.20
2023-08-18T12:52:40.928Z,8.40
2023-08-18T12:57:46.668Z,8.30
2023-08-18T13:00:20.177Z,7.40
2023-08-18T13:02:54.312Z,6.20
2023-08-18T13:05:26.760Z,6.70
2023-08-18T13:10:35.698Z,8.90
2023-08-18T13:13:08.397Z,7.50
2023-08-18T13:15:41.522Z,6.70
2023-08-18T13:18:14.252Z,7.80
2023-08-18T13:20:46.919Z,6.80
2023-08-18T13:23:19.693Z,5.70
2023-08-18T13:25:54.526Z,6.10
2023-08-18T13:28:27.109Z,6.60
2023-08-18T13:30:59.842Z,7.70
2023-08-18T13:33:32.330Z,8.20
2023-08-18T13:38:35.674Z,8.60
2023-08-18T13:43:38.457Z,10.20
2023-08-18T13:46:10.947Z,6.50
2023-08-18T13:51:13.717Z,5.90
2023-08-18T13:53:47.550Z,10.90
2023-08-18T13:56:20.537Z,11.00
2023-08-18T13:58:52.916Z,10.10
2023-08-18T14:01:25.455Z,6.50
2023-08-18T14:03:57.853Z,8.80
2023-08-18T14:06:30.282Z,6.70
2023-08-18T14:09:04.182Z,6.50
2023-08-18T14:11:37.029Z,6.60
2023-08-18T14:14:09.852Z,8.70
2023-08-18T14:16:42.524Z,7.10
2023-08-18T14:19:18.024Z,7.30
2023-08-18T14:21:50.782Z,6.10
2023-08-18T14:24:23.616Z,7.40
2023-08-18T14:26:56.120Z,6.40
2023-08-18T14:31:59.111Z,9.00
2023-08-18T14:37:03.889Z,8.50
2023-08-18T14:39:36.201Z,7.20
2023-08-18T14:42:09.184Z,8.90
2023-08-18T14:44:41.583Z,8.10
2023-08-18T14:47:14.625Z,7.90
2023-08-18T14:49:47.960Z,9.70
2023-08-18T14:52:20.535Z,6.90
2023-08-18T14:54:53.009Z,6.60
2023-08-18T14:57:25.757Z,7.80
2023-08-18T14:59:58.179Z,6.20
2023-08-18T15:02:30.920Z,6.50
2023-08-18T15:05:03.680Z,9.40
2023-08-18T15:07:36.321Z,10.70
2023-08-18T15:12:41.338Z,8.10
2023-08-18T15:15:15.130Z,12.20
2023-08-18T15:17:50.210Z,6.70
2023-08-18T15:20:23.725Z,8.00
2023-08-18T15:22:56.487Z,6.90
2023-08-18T15:25:31.243Z,7.80
2023-08-18T15:28:05.040Z,8.50
2023-08-18T15:30:38.061Z,8.30
2023-08-18T15:33:11.279Z,9.20
2023-08-18T15:35:47.542Z,8.30
2023-08-18T15:38:20.775Z,7.50
2023-08-18T15:40:55.016Z,9.60
2023-08-18T15:43:28.184Z,7.70
2023-08-18T15:46:01.767Z,9.20
2023-08-18T15:48:34.784Z,7.90
2023-08-18T15:51:10.876Z,13.70
2023-08-18T15:53:43.735Z,14.50
2023-08-18T15:56:16.825Z,11.60
2023-08-18T15:58:50.581Z,12.30
2023-08-18T16:01:23.873Z,9.20
2023-08-18T16:03:56.537Z,12.60
2023-08-18T16:06:29.535Z,12.60
2023-08-18T16:09:07.077Z,7.90
2023-08-18T16:11:39.817Z,9.60
2023-08-18T16:17:06.314Z,7.40
2023-08-18T16:19:40.591Z,8.00
2023-08-18T16:22:13.781Z,10.20
2023-08-18T16:24:49.698Z,13.70
2023-08-18T16:27:22.437Z,11.10
2023-08-18T16:29:58.619Z,14.60
2023-08-18T16:32:33.190Z,12.90
2023-08-18T16:35:06.419Z,11.80
2023-08-18T16:37:40.457Z,10.40
2023-08-18T16:40:14.015Z,10.30
2023-08-18T16:42:47.103Z,11.80
2023-08-18T16:45:20.823Z,10.80
2023-08-18T16:47:53.768Z,12.30
2023-08-18T16:50:26.787Z,11.30
2023-08-18T16:52:59.672Z,11.80
2023-08-18T16:55:32.498Z,11.20
2023-08-18T17:00:40.731Z,10.90
2023-08-18T17:03:16.707Z,11.20
2023-08-18T17:05:51.338Z,11.50
2023-08-18T17:08:25.743Z,12.60
2023-08-18T17:11:00.866Z,11.40
2023-08-18T17:13:33.619Z,11.00
2023-08-18T17:18:38.658Z,10.80
2023-08-18T17:21:11.540Z,10.80
2023-08-18T17:26:26.112Z,16.60
2023-08-18T17:29:00.656Z,10.90
2023-08-18T17:31:37.343Z,12.40
2023-08-18T17:34:14.424Z,12.60
2023-08-18T17:36:55.667Z,11.50
2023-08-18T17:39:40.749Z,12.70
2023-08-18T17:42:23.562Z,13.10
2023-08-18T17:44:59.097Z,12.60
2023-08-18T17:47:35.770Z,13.10
2023-08-18T17:50:24.099Z,13.10
2023-08-18T17:53:00.426Z,12.60
2023-08-18T17:55:46.399Z,13.00
2023-08-18T17:58:27.096Z,16.00
2023-08-18T18:01:07.177Z,14.00
2023-08-18T18:03:50.154Z,13.00
2023-08-18T18:06:27.329Z,12.40
2023-08-18T18:09:07.950Z,13.80
2023-08-18T18:11:46.655Z,11.90
2023-08-18T18:14:25.099Z,12.60
2023-08-18T18:17:03.423Z,9.80
2023-08-18T18:19:45.027Z,11.00
2023-08-18T18:22:23.616Z,11.00
2023-08-18T18:25:04.176Z,11.90
2023-08-18T18:27:44.221Z,10.30
2023-08-18T18:30:27.666Z,10.90
2023-08-18T18:33:02.955Z,10.30
2023-08-18T18:35:39.623Z,11.00
2023-08-18T18:38:16.191Z,10.40
2023-08-18T18:40:51.507Z,10.40
2023-08-18T18:43:27.347Z,10.60
2023-08-18T18:46:05.498Z,11.00
2023-08-18T18:48:41.983Z,10.60
2023-08-18T18:51:18.834Z,10.90
2023-08-18T18:53:56.779Z,11.60
2023-08-18T18:56:35.550Z,11.50
2023-08-18T18:59:12.859Z,10.90
2023-08-18T19:01:49.298Z,10.70
2023-08-18T19:04:28.099Z,11.00
2023-08-18T19:07:05.380Z,11.10
2023-08-18T19:09:43.261Z,11.50
2023-08-18T19:12:20.307Z,12.50
2023-08-18T19:15:03.045Z,12.20
2023-08-18T19:17:40.214Z,13.20
2023-08-18T19:20:31.606Z,12.20
2023-08-18T19:23:08.386Z,12.50
2023-08-18T19:25:46.605Z,12.20
2023-08-18T19:28:23.178Z,12.00
2023-08-18T19:31:03.426Z,13.00
2023-08-18T19:33:40.655Z,13.70
2023-08-18T19:36:19.190Z,12.10
2023-08-18T19:38:57.258Z,13.30
2023-08-18T19:41:35.108Z,13.10
2023-08-18T19:44:24.578Z,12.60
2023-08-18T19:47:00.183Z,12.60
2023-08-18T19:49:32.777Z,13.10
2023-08-18T19:52:05.858Z,12.90
2023-08-18T19:57:09.708Z,12.90
2023-08-18T20:02:13.949Z,12.70
2023-08-18T20:04:47.459Z,13.40
2023-08-18T20:07:20.819Z,13.30
2023-08-18T20:09:54.346Z,13.30
2023-08-18T20:12:31.431Z,13.10
2023-08-18T20:15:06.456Z,14.00
2023-08-18T20:17:40.482Z,13.60
2023-08-18T20:20:14.466Z,13.30
2023-08-18T20:22:47.625Z,13.10
2023-08-18T20:25:23.158Z,15.00
2023-08-18T20:27:58.338Z,14.20
2023-08-18T20:30:31.747Z,12.80
2023-08-18T20:33:05.022Z,13.10
2023-08-18T20:35:37.820Z,14.80
2023-08-18T20:40:41.700Z,13.40
2023-08-18T20:43:14.791Z,13.70
2023-08-18T20:48:18.534Z,12.70
2023-08-18T20:50:59.457Z,14.10
2023-08-18T20:53:33.018Z,13.60
2023-08-18T20:56:08.275Z,13.30
2023-08-18T20:58:46.742Z,13.90
2023-08-18T21:01:21.608Z,14.00
2023-08-18T21:03:54.723Z,14.20
2023-08-18T21:06:28.259Z,14.70
2023-08-18T21:09:02.938Z,15.40
2023-08-18T21:11:35.935Z,13.90
2023-08-18T21:14:09.417Z,13.60
2023-08-18T21:16:46.312Z,13.20
2023-08-18T21:19:19.142Z,13.00
2023-08-18T21:21:52.223Z,14.20
2023-08-18T21:24:25.463Z,14.80
2023-08-18T21:26:59.897Z,14.00
2023-08-18T21:29:32.738Z,12.70
2023-08-18T21:32:05.706Z,13.00
2023-08-18T21:34:38.464Z,13.80
2023-08-18T21:37:13.462Z,13.00
2023-08-18T21:39:47.661Z,13.40
2023-08-18T21:42:20.699Z,13.40
2023-08-18T21:47:24.552Z,13.50
2023-08-18T21:52:28.257Z,13.00
2023-08-18T21:57:32.137Z,11.70
2023-08-18T22:00:05.664Z,13.80
2023-08-18T22:02:47.773Z,13.00
2023-08-18T22:05:20.501Z,13.30
2023-08-18T22:07:53.263Z,12.40
2023-08-18T22:10:26.293Z,12.60
2023-08-18T22:12:59.460Z,13.70
2023-08-18T22:15:33.345Z,13.60
2023-08-18T22:18:06.899Z,13.30
2023-08-18T22:20:39.740Z,13.10
2023-08-18T22:23:12.601Z,13.20
2023-08-18T22:25:45.820Z,12.60
2023-08-18T22:30:49.457Z,13.20
2023-08-18T22:36:01.471Z,12.40
2023-08-18T22:38:34.417Z,13.70
2023-08-18T22:41:07.624Z,12.80
2023-08-18T22:46:16.022Z,12.50
2023-08-18T22:48:48.975Z,13.30
2023-08-18T22:51:21.936Z,13.60
2023-08-18T22:53:55.379Z,12.90
2023-08-18T22:56:28.574Z,13.40
2023-08-18T22:59:03.540Z,12.60
2023-08-18T23:01:36.615Z,13.30
2023-08-18T23:06:42.377Z,13.50
2023-08-18T23:09:15.256Z,14.00
2023-08-18T23:11:48.418Z,12.80
2023-08-18T23:16:53.022Z,13.30
2023-08-18T23:19:25.796Z,13.20
2023-08-18T23:24:29.839Z,12.40
2023-08-18T23:27:02.498Z,13.20
2023-08-18T23:29:35.464Z,13.80
2023-08-18T23:34:39.540Z,13.10
2023-08-18T23:37:12.623Z,14.20
2023-08-18T23:39:45.981Z,15.50
2023-08-18T23:42:19.148Z,14.00
2023-08-18T23:47:23.245Z,14.70
2023-08-18T23:49:56.019Z,15.70
2023-08-18T23:52:29.042Z,15.20
2023-08-18T23:55:01.982Z,16.30
2023-08-18T23:57:34.983Z,16.10
